Airport View

Enter AWOS ICAO identifier for current METAR.

ex. KFNL

KGKT 120615Z AUTO 00000KT 10SM CLR M03/M03 A3053 RMK A01

12 Dec 2019 06:30

Frequency: 126.875

Phone: 865-429-5401

Other Area AWOS: KDKX - KMOR - KTYS - KOQT

TAF KTYS 120531Z 1206/1306 04004KT P6SM SKC FM130400 18005KT P6SM BKN025